createdAt,value
2022-09-06T00:02:02.576Z,98270.28
2022-09-06T00:04:29.026Z,98282.22
2022-09-06T00:06:55.420Z,98269.28
2022-09-06T00:09:21.829Z,98260.84
2022-09-06T00:11:48.217Z,98243.50
2022-09-06T00:14:14.611Z,98226.44
2022-09-06T00:16:41.120Z,98212.63
2022-09-06T00:19:07.543Z,98202.75
2022-09-06T00:21:35.582Z,98201.50
2022-09-06T00:24:03.857Z,98203.16
2022-09-06T00:26:30.294Z,98204.81
2022-09-06T00:28:56.697Z,98210.97
2022-09-06T00:31:25.716Z,98224.56
2022-09-06T00:33:52.480Z,98222.91
2022-09-06T00:36:20.054Z,98241.22
2022-09-06T00:38:46.474Z,98239.81
2022-09-06T00:41:15.217Z,98258.75
2022-09-06T00:43:42.659Z,98261.66
2022-09-06T00:46:12.054Z,98275.63
2022-09-06T00:48:39.827Z,98266.38
2022-09-06T00:51:10.421Z,98259.59
2022-09-06T00:53:37.574Z,98237.75
2022-09-06T00:56:04.384Z,98241.47
2022-09-06T00:58:31.018Z,98233.22
2022-09-06T01:00:57.463Z,98222.13
2022-09-06T01:03:25.415Z,98207.72
2022-09-06T01:06:12.332Z,98217.16
2022-09-06T01:09:02.113Z,98216.13
2022-09-06T01:11:49.429Z,98214.50
2022-09-06T01:14:28.939Z,98205.25
2022-09-06T01:17:10.675Z,98205.63
2022-09-06T01:20:21.932Z,98193.69
2022-09-06T01:23:07.237Z,98191.25
2022-09-06T01:25:48.094Z,98192.06
2022-09-06T01:28:27.719Z,98197.00
2022-09-06T01:31:09.066Z,98191.00
2022-09-06T01:33:46.034Z,98186.06
2022-09-06T01:36:18.346Z,98187.06
2022-09-06T01:38:44.808Z,98178.47
2022-09-06T01:41:11.331Z,98189.19
2022-09-06T01:43:40.941Z,98191.22
2022-09-06T01:46:30.431Z,98185.06
2022-09-06T01:49:11.830Z,98188.94
2022-09-06T01:52:04.528Z,98174.31
2022-09-06T01:54:48.448Z,98181.91
2022-09-06T01:57:23.582Z,98180.84
2022-09-06T02:00:20.148Z,98174.44
2022-09-06T02:02:58.593Z,98163.16
2022-09-06T02:05:51.157Z,98159.00
2022-09-06T02:08:25.556Z,98147.47
2022-09-06T02:10:57.972Z,98136.00
2022-09-06T02:13:27.605Z,98133.72
2022-09-06T02:16:01.989Z,98137.63
2022-09-06T02:18:34.471Z,98144.19
2022-09-06T02:21:03.414Z,98154.22
2022-09-06T02:23:35.877Z,98142.75
2022-09-06T02:26:10.520Z,98141.03
2022-09-06T02:28:36.986Z,98131.41
2022-09-06T02:31:13.082Z,98126.06
2022-09-06T02:33:43.792Z,98121.75
2022-09-06T02:36:10.982Z,98113.56
2022-09-06T02:38:40.632Z,98112.56
2022-09-06T02:41:08.131Z,98114.44
2022-09-06T02:43:34.676Z,98119.97
2022-09-06T02:46:01.255Z,98126.13
2022-09-06T02:48:27.995Z,98134.59
2022-09-06T02:50:54.538Z,98139.31
2022-09-06T02:53:21.027Z,98137.66
2022-09-06T02:55:48.715Z,98129.44
2022-09-06T02:58:16.190Z,98137.25
2022-09-06T03:00:42.597Z,98130.47
2022-09-06T03:03:08.985Z,98132.28
2022-09-06T03:05:35.491Z,98138.66
2022-09-06T03:08:02.166Z,98133.06
2022-09-06T03:10:28.637Z,98129.84
2022-09-06T03:12:55.052Z,98125.72
2022-09-06T03:15:21.613Z,98133.56
2022-09-06T03:17:48.014Z,98140.94
2022-09-06T03:20:14.668Z,98138.47
2022-09-06T03:22:41.491Z,98144.00
2022-09-06T03:25:09.743Z,98129.81
2022-09-06T03:27:36.851Z,98136.19
2022-09-06T03:30:04.841Z,98133.53
2022-09-06T03:32:31.252Z,98129.78
2022-09-06T03:34:58.066Z,98133.03
2022-09-06T03:37:24.464Z,98117.44
2022-09-06T03:39:50.967Z,98106.50
2022-09-06T03:42:17.454Z,98109.78
2022-09-06T03:44:43.868Z,98095.78
2022-09-06T03:47:10.442Z,98088.22
2022-09-06T03:49:36.867Z,98094.84
2022-09-06T03:52:03.875Z,98098.53
2022-09-06T03:54:30.847Z,98099.16
2022-09-06T03:56:57.618Z,98106.13
2022-09-06T03:59:24.023Z,98103.47
2022-09-06T04:01:50.491Z,98101.00
2022-09-06T04:04:16.903Z,98104.69
2022-09-06T04:06:43.351Z,98103.69
2022-09-06T04:09:09.915Z,98103.47
2022-09-06T04:11:36.419Z,98098.97
2022-09-06T04:14:02.867Z,98101.44
2022-09-06T04:16:29.413Z,98096.09
2022-09-06T04:18:55.897Z,98096.69
2022-09-06T04:21:22.318Z,98102.44
2022-09-06T04:23:48.822Z,98100.59
2022-09-06T04:26:15.237Z,98102.22
2022-09-06T04:28:41.663Z,98099.28
2022-09-06T04:31:08.206Z,98088.19
2022-09-06T04:33:36.382Z,98086.75
2022-09-06T04:36:06.197Z,98076.06
2022-09-06T04:38:37.179Z,98070.50
2022-09-06T04:41:04.532Z,98068.69
2022-09-06T04:43:31.170Z,98073.28
2022-09-06T04:46:04.001Z,98079.63
2022-09-06T04:48:30.926Z,98074.28
2022-09-06T04:50:57.371Z,98088.28
2022-09-06T04:53:24.971Z,98075.31
2022-09-06T04:55:51.484Z,98075.13
2022-09-06T04:58:18.041Z,98066.50
2022-09-06T05:00:44.937Z,98066.88
2022-09-06T05:03:11.376Z,98077.59
2022-09-06T05:05:37.881Z,98078.00
2022-09-06T05:08:04.295Z,98079.00
2022-09-06T05:10:31.010Z,98087.44
2022-09-06T05:12:57.427Z,98092.38
2022-09-06T05:15:24.883Z,98084.75
2022-09-06T05:17:51.276Z,98085.41
2022-09-06T05:20:18.418Z,98092.19
2022-09-06T05:22:53.156Z,98100.03
2022-09-06T05:25:19.583Z,98115.88
2022-09-06T05:27:46.000Z,98136.03
2022-09-06T05:30:13.136Z,98146.09
2022-09-06T05:32:42.458Z,98161.53
2022-09-06T05:35:09.639Z,98168.53
2022-09-06T05:37:36.041Z,98165.28
2022-09-06T05:40:03.059Z,98175.97
2022-09-06T05:42:31.827Z,98173.53
2022-09-06T05:44:58.238Z,98181.34
2022-09-06T05:47:24.661Z,98173.06
2022-09-06T05:49:54.471Z,98164.81
2022-09-06T05:52:21.302Z,98156.16
2022-09-06T05:54:47.699Z,98150.59
2022-09-06T05:57:14.574Z,98138.03
2022-09-06T05:59:42.852Z,98137.25
2022-09-06T06:02:09.753Z,98145.47
2022-09-06T06:04:36.497Z,98154.13
2022-09-06T06:07:03.457Z,98160.31
2022-09-06T06:09:30.087Z,98174.34
2022-09-06T06:11:56.534Z,98194.13
2022-09-06T06:14:22.962Z,98202.34
2022-09-06T06:16:49.988Z,98208.94
2022-09-06T06:19:16.499Z,98221.31
2022-09-06T06:21:43.700Z,98234.06
2022-09-06T06:24:10.878Z,98224.16
2022-09-06T06:26:37.837Z,98224.78
2022-09-06T06:29:08.008Z,98214.72
2022-09-06T06:31:34.440Z,98214.69
2022-09-06T06:34:03.669Z,98207.06
2022-09-06T06:36:31.651Z,98215.31
2022-09-06T06:38:58.564Z,98286.41
2022-09-06T06:41:26.863Z,98337.28
2022-09-06T06:43:58.077Z,98392.91
2022-09-06T06:46:27.583Z,98470.72
2022-09-06T06:48:57.191Z,98498.50
2022-09-06T06:51:26.563Z,98575.31
2022-09-06T06:53:53.064Z,98648.88
2022-09-06T06:56:27.774Z,98588.91
2022-09-06T06:58:57.727Z,98507.81
2022-09-06T07:01:26.258Z,98575.41
2022-09-06T07:03:54.408Z,98561.28
2022-09-06T07:06:22.460Z,98535.19
2022-09-06T07:09:08.503Z,98530.28
2022-09-06T07:11:34.915Z,98529.13
2022-09-06T07:14:01.356Z,98519.72
2022-09-06T07:16:29.934Z,98529.97
2022-09-06T07:18:56.443Z,98536.25
2022-09-06T07:21:43.139Z,98519.97
2022-09-06T07:24:10.291Z,98502.19
2022-09-06T07:26:39.406Z,98486.91
2022-09-06T07:29:07.456Z,98493.91
2022-09-06T07:34:22.196Z,98461.38
2022-09-06T07:36:51.587Z,98451.69
2022-09-06T07:39:18.086Z,98443.81
2022-09-06T07:41:44.496Z,98440.81
2022-09-06T07:44:11.095Z,98449.31
2022-09-06T07:46:37.558Z,98446.56
2022-09-06T07:49:05.373Z,98441.06
2022-09-06T07:51:32.523Z,98451.22
2022-09-06T07:54:26.289Z,98428.25
2022-09-06T07:56:46.236Z,98450.84
2022-09-06T07:59:12.668Z,98448.16
2022-09-06T08:01:39.271Z,98444.50
2022-09-06T08:04:15.178Z,98449.25
2022-09-06T08:09:30.827Z,98490.25
2022-09-06T08:11:57.335Z,98482.56
2022-09-06T08:14:24.173Z,98460.31
2022-09-06T08:16:51.264Z,98457.72
2022-09-06T08:19:18.386Z,98454.44
2022-09-06T08:21:44.866Z,98469.69
2022-09-06T08:24:11.324Z,98478.03
2022-09-06T08:26:40.462Z,98476.22
2022-09-06T08:29:08.896Z,98475.44
2022-09-06T08:31:37.996Z,98448.66
2022-09-06T08:34:04.993Z,98422.03
2022-09-06T08:36:32.316Z,98413.38
2022-09-06T08:39:00.359Z,98402.00
2022-09-06T08:41:31.122Z,98401.22
2022-09-06T08:46:59.520Z,98335.13
2022-09-06T08:49:32.342Z,98301.41
2022-09-06T08:52:19.983Z,98293.88
2022-09-06T08:54:56.886Z,98302.97
2022-09-06T08:58:01.827Z,98301.31
2022-09-06T09:00:28.271Z,98327.28
2022-09-06T09:03:00.207Z,98328.47
2022-09-06T09:05:38.211Z,98381.31
2022-09-06T09:08:29.550Z,98404.31
2022-09-06T09:11:06.507Z,98430.88
2022-09-06T09:13:49.795Z,98495.88
2022-09-06T09:16:17.600Z,98492.09
2022-09-06T09:18:49.834Z,98554.06
2022-09-06T09:21:21.102Z,98617.56
2022-09-06T09:23:53.326Z,98607.88
2022-09-06T09:26:22.532Z,98632.53
2022-09-06T09:29:10.183Z,98647.66
2022-09-06T09:31:53.398Z,98610.06
2022-09-06T09:34:33.830Z,98612.50
2022-09-06T09:37:49.771Z,98698.63
2022-09-06T09:40:25.408Z,98708.97
2022-09-06T09:42:54.832Z,98787.81
2022-09-06T09:45:25.835Z,98794.66
2022-09-06T09:47:52.274Z,98823.72
2022-09-06T09:50:32.100Z,98956.69
2022-09-06T09:53:09.317Z,98980.50
2022-09-06T09:55:36.522Z,98951.22
2022-09-06T09:58:03.930Z,98970.56
2022-09-06T10:00:39.969Z,98986.50
2022-09-06T10:03:15.009Z,98970.75
2022-09-06T10:05:42.343Z,98957.72
2022-09-06T10:08:13.075Z,98957.59
2022-09-06T10:10:43.097Z,98964.28
2022-09-06T10:13:22.266Z,98929.22
2022-09-06T10:15:50.971Z,98913.06
2022-09-06T10:18:20.567Z,98953.00
2022-09-06T10:20:56.144Z,98967.09
2022-09-06T10:26:36.437Z,98976.00
2022-09-06T10:29:09.752Z,98977.13
2022-09-06T10:31:39.121Z,98997.34
2022-09-06T10:34:40.575Z,99024.81
2022-09-06T10:37:09.943Z,99064.97
2022-09-06T10:40:07.170Z,99052.69
2022-09-06T10:42:47.456Z,99065.81
2022-09-06T10:45:29.852Z,99041.41
2022-09-06T10:48:04.748Z,99022.41
2022-09-06T10:50:45.671Z,99036.66
2022-09-06T10:53:34.698Z,99037.34
2022-09-06T10:56:06.623Z,99032.47
2022-09-06T11:02:11.784Z,98968.38
2022-09-06T11:07:29.835Z,98972.00
2022-09-06T11:10:14.308Z,98996.88
2022-09-06T11:13:08.683Z,98947.47
2022-09-06T11:15:45.237Z,98991.97
2022-09-06T11:18:23.338Z,99026.97
2022-09-06T11:20:58.243Z,99064.09
2022-09-06T11:23:51.998Z,99058.97
2022-09-06T11:26:36.961Z,99040.38
2022-09-06T11:29:25.450Z,99054.91
2022-09-06T11:32:17.062Z,99057.88
2022-09-06T11:34:53.627Z,99066.72
2022-09-06T11:37:27.147Z,99054.59
2022-09-06T11:42:53.988Z,99058.09
2022-09-06T11:45:23.236Z,99061.69
2022-09-06T11:47:54.964Z,99065.00
2022-09-06T11:50:21.335Z,99053.38
2022-09-06T11:53:06.335Z,99054.66
2022-09-06T11:55:48.728Z,99050.09
2022-09-06T11:58:18.110Z,99050.75
2022-09-06T12:00:46.415Z,99049.50
2022-09-06T12:06:35.414Z,99007.59
2022-09-06T12:09:02.769Z,99010.53
2022-09-06T12:11:35.211Z,99028.84
2022-09-06T12:14:05.879Z,99010.03
2022-09-06T12:16:57.340Z,98998.47
2022-09-06T12:19:53.866Z,99022.69
2022-09-06T12:22:26.497Z,99029.59
2022-09-06T12:24:58.134Z,99017.31
2022-09-06T12:27:30.758Z,99020.13
2022-09-06T12:30:00.058Z,99024.53
2022-09-06T12:32:36.995Z,99002.94
2022-09-06T12:37:58.913Z,99006.75
2022-09-06T12:40:29.425Z,99011.66
2022-09-06T12:42:56.526Z,99012.13
2022-09-06T12:45:27.359Z,98996.84
2022-09-06T12:48:07.039Z,98995.66
2022-09-06T12:50:33.683Z,98968.47
2022-09-06T12:53:02.125Z,98960.41
2022-09-06T12:55:35.278Z,98952.63
2022-09-06T12:58:07.602Z,98954.47
2022-09-06T13:00:42.312Z,98953.31
2022-09-06T13:03:29.989Z,98975.53
2022-09-06T13:05:58.771Z,98972.59
2022-09-06T13:08:33.408Z,98974.97
2022-09-06T13:11:00.408Z,98971.34
2022-09-06T13:13:27.453Z,98975.78
2022-09-06T13:15:55.905Z,98965.44
2022-09-06T13:18:36.887Z,98961.91
2022-09-06T13:21:19.322Z,98948.84
2022-09-06T13:23:48.734Z,98940.41
2022-09-06T13:26:15.789Z,98927.63
2022-09-06T13:28:42.260Z,98903.81
2022-09-06T13:31:19.669Z,98916.13
2022-09-06T13:33:56.965Z,98898.75
2022-09-06T13:36:27.827Z,98898.25
2022-09-06T13:38:55.525Z,98892.44
2022-09-06T13:41:24.685Z,98906.72
2022-09-06T13:44:18.625Z,98878.47
2022-09-06T13:46:45.587Z,98884.63
2022-09-06T13:49:12.035Z,98854.28
2022-09-06T13:51:39.261Z,98860.25
2022-09-06T13:54:08.629Z,98866.38
2022-09-06T13:56:35.254Z,98855.41
2022-09-06T13:59:02.201Z,98851.63
2022-09-06T14:01:28.778Z,98871.94
2022-09-06T14:03:55.313Z,98856.78
2022-09-06T14:06:22.243Z,98833.06
2022-09-06T14:09:06.313Z,98841.56
2022-09-06T14:11:33.690Z,98853.34
2022-09-06T14:14:00.152Z,98839.97
2022-09-06T14:16:26.787Z,98844.53
2022-09-06T14:18:53.264Z,98835.09
2022-09-06T14:21:20.140Z,98838.06
2022-09-06T14:23:53.765Z,98836.53
2022-09-06T14:26:21.666Z,98833.66
2022-09-06T14:28:48.371Z,98832.00
2022-09-06T14:31:17.706Z,98840.25
2022-09-06T14:33:44.198Z,98835.66
2022-09-06T14:36:17.516Z,98837.50
2022-09-06T14:38:46.078Z,98833.00
2022-09-06T14:41:14.478Z,98826.13
2022-09-06T14:43:45.164Z,98832.38
2022-09-06T14:46:14.213Z,98839.78
2022-09-06T14:48:42.615Z,98842.69
2022-09-06T14:51:20.749Z,98850.06
2022-09-06T14:53:48.768Z,98861.34
2022-09-06T14:56:16.048Z,98857.31
2022-09-06T14:58:43.396Z,98860.22
2022-09-06T15:01:19.017Z,98853.13
2022-09-06T15:03:51.649Z,98837.34
2022-09-06T15:06:20.467Z,98829.53
2022-09-06T15:08:48.530Z,98833.88
2022-09-06T15:11:27.364Z,98823.94
2022-09-06T15:13:53.782Z,98824.28
2022-09-06T15:16:20.251Z,98809.25
2022-09-06T15:18:46.685Z,98806.38
2022-09-06T15:21:15.340Z,98821.19
2022-09-06T15:23:43.219Z,98806.28
2022-09-06T15:26:11.983Z,98798.69
2022-09-06T15:28:40.154Z,98814.25
2022-09-06T15:31:08.254Z,98796.53
2022-09-06T15:33:36.613Z,98805.72
2022-09-06T15:36:06.670Z,98806.13
2022-09-06T15:38:34.474Z,98805.06
2022-09-06T15:41:13.556Z,98798.69
2022-09-06T15:43:45.914Z,98791.41
2022-09-06T15:46:12.992Z,98794.19
2022-09-06T15:48:47.321Z,98788.09
2022-09-06T15:51:16.531Z,98799.25
2022-09-06T15:53:43.713Z,98769.72
2022-09-06T15:56:13.012Z,98774.78
2022-09-06T15:58:39.519Z,98784.13
2022-09-06T16:01:14.244Z,98764.94
2022-09-06T16:03:46.767Z,98771.69
2022-09-06T16:06:28.470Z,98768.84
2022-09-06T16:09:07.456Z,98767.63
2022-09-06T16:11:36.514Z,98746.78
2022-09-06T16:14:05.258Z,98731.66
2022-09-06T16:16:32.715Z,98732.00
2022-09-06T16:19:00.171Z,98733.06
2022-09-06T16:21:30.694Z,98727.63
2022-09-06T16:24:00.012Z,98719.69
2022-09-06T16:26:29.788Z,98725.03
2022-09-06T16:28:56.191Z,98722.00
2022-09-06T16:31:23.044Z,98732.34
2022-09-06T16:33:50.291Z,98709.03
2022-09-06T16:36:18.782Z,98713.16
2022-09-06T16:38:46.108Z,98707.19
2022-09-06T16:41:17.214Z,98704.78
2022-09-06T16:43:45.785Z,98687.22
2022-09-06T16:46:13.025Z,98695.91
2022-09-06T16:48:40.651Z,98686.69
2022-09-06T16:51:18.094Z,98676.28
2022-09-06T16:53:46.491Z,98683.09
2022-09-06T16:56:16.121Z,98674.53
2022-09-06T16:58:49.830Z,98659.34
2022-09-06T17:01:16.418Z,98654.00
2022-09-06T17:03:43.031Z,98651.53
2022-09-06T17:06:10.544Z,98646.22
2022-09-06T17:08:37.309Z,98651.72
2022-09-06T17:11:11.170Z,98655.31
2022-09-06T17:13:37.882Z,98669.81
2022-09-06T17:16:23.987Z,98671.75
2022-09-06T17:18:53.651Z,98679.41
2022-09-06T17:21:21.779Z,98673.63
2022-09-06T17:23:49.514Z,98654.41
2022-09-06T17:26:17.206Z,98653.09
2022-09-06T17:28:43.644Z,98619.06
2022-09-06T17:31:10.192Z,98602.16
2022-09-06T17:33:36.800Z,98601.94
2022-09-06T17:36:12.141Z,98593.25
2022-09-06T17:38:40.328Z,98574.09
2022-09-06T17:41:06.985Z,98569.91
2022-09-06T17:43:36.043Z,98557.81
2022-09-06T17:46:04.084Z,98539.97
2022-09-06T17:48:30.730Z,98532.72
2022-09-06T17:51:05.524Z,98532.63
2022-09-06T17:53:31.976Z,98523.00
2022-09-06T17:55:58.488Z,98519.53
2022-09-06T17:58:25.100Z,98520.56
2022-09-06T18:00:51.792Z,98516.81
2022-09-06T18:03:18.270Z,98515.97
2022-09-06T18:05:45.216Z,98530.91
2022-09-06T18:08:11.797Z,98509.06
2022-09-06T18:10:38.811Z,98516.38
2022-09-06T18:13:06.111Z,98509.47
2022-09-06T18:15:38.947Z,98510.63
2022-09-06T18:18:05.561Z,98519.56
2022-09-06T18:20:31.965Z,98511.19
2022-09-06T18:22:59.355Z,98505.47
2022-09-06T18:25:26.274Z,98509.56
2022-09-06T18:27:52.750Z,98510.03
2022-09-06T18:30:19.200Z,98505.16
2022-09-06T18:32:45.764Z,98511.41
2022-09-06T18:35:12.327Z,98496.50
2022-09-06T18:37:38.767Z,98501.28
2022-09-06T18:40:06.595Z,98503.88
2022-09-06T18:42:33.754Z,98498.13
2022-09-06T18:45:00.177Z,98488.72
2022-09-06T18:47:26.649Z,98490.59
2022-09-06T18:49:53.134Z,98504.06
2022-09-06T18:52:20.780Z,98494.69
2022-09-06T18:54:49.191Z,98494.06
2022-09-06T18:57:17.152Z,98489.38
2022-09-06T18:59:44.365Z,98482.91
2022-09-06T19:02:11.267Z,98475.41
2022-09-06T19:04:37.775Z,98475.94
2022-09-06T19:07:04.417Z,98451.41
2022-09-06T19:09:31.010Z,98449.75
2022-09-06T19:11:57.428Z,98441.66
2022-09-06T19:14:23.960Z,98432.50
2022-09-06T19:16:53.748Z,98422.47
2022-09-06T19:19:21.781Z,98419.19
2022-09-06T19:21:48.235Z,98391.41
2022-09-06T19:24:16.236Z,98371.06
2022-09-06T19:26:44.153Z,98385.50
2022-09-06T19:29:16.051Z,98378.91
2022-09-06T19:31:43.090Z,98363.69
2022-09-06T19:34:09.700Z,98363.91
2022-09-06T19:36:36.236Z,98362.72
2022-09-06T19:39:06.023Z,98339.22
2022-09-06T19:41:36.260Z,98338.19
2022-09-06T19:44:05.443Z,98336.84
2022-09-06T19:46:32.098Z,98302.75
2022-09-06T19:48:58.868Z,98297.50
2022-09-06T19:51:25.714Z,98309.78
2022-09-06T19:53:54.742Z,98283.75
2022-09-06T19:56:24.410Z,98265.34
2022-09-06T19:58:55.663Z,98247.84
2022-09-06T20:01:22.623Z,98232.66
2022-09-06T20:03:49.191Z,98224.91
2022-09-06T20:06:15.647Z,98226.47
2022-09-06T20:08:42.302Z,98222.09
2022-09-06T20:11:12.577Z,98202.28
2022-09-06T20:13:39.890Z,98192.50
2022-09-06T20:16:08.121Z,98185.81
2022-09-06T20:18:35.472Z,98179.66
2022-09-06T20:21:02.399Z,98172.19
2022-09-06T20:23:30.566Z,98164.63
2022-09-06T20:25:59.574Z,98155.28
2022-09-06T20:28:26.670Z,98151.63
2022-09-06T20:30:53.167Z,98132.22
2022-09-06T20:33:19.875Z,98134.22
2022-09-06T20:36:03.550Z,98132.22
2022-09-06T20:38:33.603Z,98125.31
2022-09-06T20:41:05.736Z,98111.72
2022-09-06T20:43:35.160Z,98114.63
2022-09-06T20:46:04.406Z,98109.25
2022-09-06T20:48:40.912Z,98107.19
2022-09-06T20:51:14.904Z,98103.03
2022-09-06T20:53:41.658Z,98096.94
2022-09-06T20:56:17.271Z,98083.81
2022-09-06T20:58:49.902Z,98060.19
2022-09-06T21:01:22.990Z,98044.56
2022-09-06T21:03:52.689Z,98028.09
2022-09-06T21:06:20.503Z,98020.25
2022-09-06T21:08:47.774Z,98022.94
2022-09-06T21:11:14.863Z,98004.09
2022-09-06T21:13:41.471Z,97986.22
2022-09-06T21:16:08.710Z,97985.19
2022-09-06T21:18:35.971Z,97983.53
2022-09-06T21:21:04.947Z,97990.16
2022-09-06T21:23:34.616Z,98003.75
2022-09-06T21:26:03.289Z,98008.94
2022-09-06T21:28:33.515Z,98007.13
2022-09-06T21:31:11.774Z,98005.94
2022-09-06T21:33:40.985Z,97985.81
2022-09-06T21:36:12.936Z,97977.38
2022-09-06T21:38:42.302Z,97976.91
2022-09-06T21:41:10.466Z,97989.69
2022-09-06T21:43:37.172Z,97992.53
2022-09-06T21:46:11.300Z,97995.03
2022-09-06T21:48:38.794Z,97979.41
2022-09-06T21:51:09.828Z,97972.84
2022-09-06T21:53:37.391Z,97973.97
2022-09-06T21:56:05.073Z,97962.78
2022-09-06T21:58:32.635Z,97966.28
2022-09-06T22:01:00.527Z,97959.78
2022-09-06T22:03:28.875Z,97957.63
2022-09-06T22:05:55.556Z,97948.97
2022-09-06T22:08:23.113Z,97948.22
2022-09-06T22:10:49.670Z,97969.84
2022-09-06T22:13:17.343Z,97987.59
2022-09-06T22:15:43.888Z,97992.22
2022-09-06T22:18:11.832Z,97991.78
2022-09-06T22:20:38.704Z,97977.63
2022-09-06T22:23:06.776Z,97979.19
2022-09-06T22:25:33.794Z,97942.25
2022-09-06T22:28:00.564Z,97943.03
2022-09-06T22:30:27.537Z,97925.81
2022-09-06T22:32:53.986Z,97913.53
2022-09-06T22:35:21.355Z,97898.25
2022-09-06T22:37:47.749Z,97883.97
2022-09-06T22:40:14.160Z,97871.00
2022-09-06T22:42:40.614Z,97871.59
2022-09-06T22:45:07.527Z,97856.38
2022-09-06T22:47:33.952Z,97858.03
2022-09-06T22:50:00.363Z,97851.44
2022-09-06T22:52:26.826Z,97837.31
2022-09-06T22:54:53.239Z,97844.09
2022-09-06T22:57:19.788Z,97852.06
2022-09-06T22:59:46.200Z,97849.69
2022-09-06T23:02:12.598Z,97847.56
2022-09-06T23:04:39.124Z,97839.59
2022-09-06T23:07:06.033Z,97828.13
2022-09-06T23:09:32.451Z,97829.66
2022-09-06T23:11:58.886Z,97815.97
2022-09-06T23:14:27.890Z,97815.97
2022-09-06T23:16:54.774Z,97814.72
2022-09-06T23:19:21.302Z,97815.53
2022-09-06T23:21:47.771Z,97820.56
2022-09-06T23:24:14.211Z,97824.38
2022-09-06T23:26:40.643Z,97834.03
2022-09-06T23:29:07.852Z,97823.75
2022-09-06T23:31:35.193Z,97808.34
2022-09-06T23:34:02.530Z,97793.22
2022-09-06T23:36:29.469Z,97766.13
2022-09-06T23:38:56.280Z,97752.78
2022-09-06T23:41:23.212Z,97743.84
2022-09-06T23:43:49.637Z,97744.63
2022-09-06T23:46:16.856Z,97755.06
2022-09-06T23:48:43.520Z,97750.22
2022-09-06T23:51:11.085Z,97749.00
2022-09-06T23:53:37.962Z,97739.50
2022-09-06T23:56:05.088Z,97725.53
2022-09-06T23:58:31.749Z,97723.50
